KSAC/SAC METAR and TAF weather

Enter ICAO airport designator
Station Type Date Time Source
KSAC METAR 2020/01/21 09:34 UTC NOAA

KSAC 210934Z AUTO 00000KT 1SM BR CLR 05/04 A3009 RMK AO2 T00500039


Station Type Date Time Source
KSAC Decoded METAR 2020/01/21 09:34 UTC NOAA

SACRAMENTO EXECUTIVE AIRPORT , CA, United States (KSAC) 38-30N 121-30W 11M
Jan 21, 2020 - 04:34 AM EST / 2020.01.21 0934 UTC
Wind: Calm:0
Visibility: 1 mile(s):0
Sky conditions: clear
Weather: mist
Temperature: 41.0 F (5.0 C)
Dew Point: 39.0 F (3.9 C)
Relative Humidity: 92%
Pressure (altimeter): 30.09 in. Hg (1018 hPa)
ob: KSAC 210934Z AUTO 00000KT 1SM BR CLR 05/04 A3009 RMK AO2 T00500039
cycle: 9

Station Type Date Time Source
KSAC TAF 2020/01/21 06:30 UTC NOAA

TAF KSAC 210529Z 2106/2206 17002KT 6SM BR OVC100
FM211400 17004KT 4SM BR OVC050
FM212000 15007KT 4SM -RA OVC015
FM220300 14003KT 4SM HZ OVC025

Example: see airport list